Time;durP1;ratioP1;P1;durP2;ratioP2;P2;SDS_P1;SDS_P2;PMS_P1;PMS_P2;Temp;Humidity;BMP_temperature;BMP_pressure;BME280_temperature;BME280_humidity;BME280_pressure;Samples;Min_cycle;Max_cycle;Signal;HPM_P1;HPM_P2
2024/03/07 00:00:36;;;;;;;42.00;21.17;;;6.40;99.90;;;8.20;68.63;98137.69;5012094;28;20046;-44
2024/03/07 00:03:04;;;;;;;37.90;22.03;;;6.40;99.90;;;8.18;68.41;98134.34;5028925;28;20045;-44
2024/03/07 00:05:50;;;;;;;35.97;20.77;;;6.40;99.90;;;8.13;68.59;98139.19;5023121;28;20059;-43
2024/03/07 00:08:18;;;;;;;34.30;21.77;;;6.30;99.90;;;8.11;68.32;98140.31;5012265;28;20047;-44
2024/03/07 00:10:46;;;;;;;40.17;21.57;;;6.30;99.90;;;8.09;68.38;98135.13;5015355;28;20050;-43
2024/03/07 00:13:13;;;;;;;38.57;20.97;;;6.30;99.90;;;8.11;68.23;98137.66;5029698;28;20067;-44
2024/03/07 00:15:41;;;;;;;37.97;21.57;;;6.30;99.90;;;8.11;68.54;98129.69;5029410;28;20052;-43
2024/03/07 00:18:10;;;;;;;33.60;20.23;;;6.30;99.90;;;8.14;68.27;98137.38;5010687;28;20051;-43
2024/03/07 00:20:38;;;;;;;38.87;20.70;;;6.30;99.90;;;8.14;68.31;98132.91;5011752;28;20066;-44
2024/03/07 00:23:06;;;;;;;40.33;22.63;;;6.30;99.90;;;8.15;68.31;98136.41;5028951;28;20423;-43
2024/03/07 00:25:34;;;;;;;35.23;20.10;;;6.30;99.90;;;8.15;68.28;98136.41;5029474;28;20047;-44
2024/03/07 00:28:03;;;;;;;33.47;20.53;;;6.30;99.90;;;8.15;68.29;98147.84;5014923;28;20052;-44
2024/03/07 00:30:31;;;;;;;37.70;20.50;;;6.30;99.90;;;8.15;68.04;98142.53;5011523;28;20418;-44
2024/03/07 00:32:58;;;;;;;37.80;22.00;;;6.30;99.90;;;8.15;68.04;98139.88;5023213;28;20059;-43
2024/03/07 00:35:27;;;;;;;35.63;19.83;;;6.30;99.90;;;8.15;67.92;98133.75;5029287;28;20045;-44
2024/03/07 00:37:56;;;;;;;36.70;20.17;;;6.30;99.90;;;8.14;67.85;98137.38;5021020;28;20500;-43
2024/03/07 00:40:24;;;;;;;37.67;20.67;;;6.30;99.90;;;8.08;67.88;98131.66;5011481;28;20038;-44
2024/03/07 00:42:51;;;;;;;37.73;19.97;;;6.20;99.90;;;8.08;67.47;98138.75;5016086;28;20079;-44
2024/03/07 00:45:19;;;;;;;34.97;19.80;;;6.20;99.90;;;8.05;67.63;98137.19;5028874;28;20036;-44
2024/03/07 00:47:48;;;;;;;38.67;21.63;;;6.10;99.90;;;8.06;67.39;98136.25;5026073;28;20668;-44
2024/03/07 00:50:16;;;;;;;33.73;20.47;;;6.10;99.90;;;8.04;67.32;98138.16;5011021;28;20050;-43
2024/03/07 00:52:44;;;;;;;35.70;19.07;;;6.10;99.90;;;7.99;67.24;98129.78;5011892;28;20391;-44
2024/03/07 00:55:12;;;;;;;32.20;19.63;;;6.00;99.90;;;7.95;67.27;98138.13;5004152;28;20437;-43
2024/03/07 00:57:39;;;;;;;34.47;21.20;;;5.90;99.90;;;7.95;67.42;98130.16;5011875;28;20051;-44
2024/03/07 01:00:13;;;;;;;37.67;22.17;;;6.00;99.90;;;7.93;67.08;98126.81;5026366;28;20044;-43
2024/03/07 01:02:45;;;;;;;35.03;21.30;;;5.90;99.90;;;7.89;67.19;98126.25;5027579;28;20045;-42
2024/03/07 01:05:13;;;;;;;37.87;22.77;;;6.00;99.90;;;7.88;67.40;98132.53;5003173;28;20035;-42
2024/03/07 01:07:42;;;;;;;41.13;21.87;;;5.90;99.90;;;7.85;67.32;98125.69;5010724;28;20058;-43
2024/03/07 01:10:11;;;;;;;34.10;21.23;;;5.90;99.90;;;7.83;67.26;98124.13;5028143;28;20049;-43
2024/03/07 01:12:38;;;;;;;42.60;23.67;;;5.90;99.90;;;7.81;67.14;98118.09;5027635;28;20049;-42
2024/03/07 01:15:06;;;;;;;47.80;26.97;;;5.80;99.90;;;7.79;67.33;98126.22;5014630;28;20044;-43
2024/03/07 01:17:34;;;;;;;50.13;27.60;;;5.80;99.90;;;7.75;66.81;98113.34;5010465;28;20091;-42
2024/03/07 01:20:02;;;;;;;45.17;26.07;;;5.80;99.90;;;7.71;66.73;98123.34;5020360;28;20050;-42
2024/03/07 01:22:30;;;;;;;44.37;26.80;;;5.70;99.90;;;7.69;66.91;98115.53;5027685;28;20044;-42
2024/03/07 01:24:57;;;;;;;47.27;25.63;;;5.70;99.90;;;7.66;66.96;98117.63;5021791;28;20048;-42
2024/03/07 01:27:25;;;;;;;45.13;25.70;;;5.70;99.90;;;7.63;66.99;98112.59;5011360;28;20050;-43
2024/03/07 01:29:53;;;;;;;43.57;25.00;;;5.70;99.90;;;7.60;67.12;98104.88;5014272;28;20043;-42
2024/03/07 01:32:21;;;;;;;52.13;27.60;;;5.60;99.90;;;7.57;66.55;98113.94;5028769;28;20047;-42
2024/03/07 01:34:49;;;;;;;47.03;27.93;;;5.60;99.90;;;7.52;66.76;98107.34;5027275;28;20416;-42
2024/03/07 01:37:17;;;;;;;53.00;30.70;;;5.50;99.90;;;7.49;66.93;98113.75;5011423;28;20445;-46
2024/03/07 01:39:46;;;;;;;48.57;27.67;;;5.50;99.90;;;7.46;66.90;98114.00;5010785;28;20091;-42
2024/03/07 01:42:14;;;;;;;45.60;26.77;;;5.50;99.90;;;7.43;66.72;98109.81;5011138;28;20050;-42
2024/03/07 01:44:43;;;;;;;46.40;25.07;;;5.50;99.90;;;7.42;66.96;98115.25;5010192;28;20047;-43
2024/03/07 01:47:12;;;;;;;41.63;23.93;;;5.50;99.90;;;7.40;66.69;98103.94;5020229;28;20042;-42
2024/03/07 01:49:39;;;;;;;42.23;24.07;;;5.50;99.90;;;7.39;66.42;98110.22;5009449;28;20051;-42
2024/03/07 01:52:09;;;;;;;39.57;23.03;;;5.50;99.90;;;7.37;66.34;98109.50;5022834;28;20055;-42
2024/03/07 01:54:37;;;;;;;38.50;23.27;;;5.40;99.90;;;7.37;66.33;98106.88;5027165;28;20048;-42
2024/03/07 01:57:05;;;;;;;38.03;21.57;;;5.50;99.90;;;7.33;66.54;98102.75;5016878;28;20044;-42
2024/03/07 01:59:33;;;;;;;38.83;21.10;;;5.50;99.90;;;7.28;66.64;98097.88;5009508;28;20043;-42
2024/03/07 02:02:02;;;;;;;40.23;24.17;;;5.50;99.90;;;7.25;66.54;98095.47;5001736;28;20407;-42
2024/03/07 02:04:29;;;;;;;37.03;23.60;;;5.40;99.90;;;7.23;66.48;98090.31;5010501;28;20043;-42
2024/03/07 02:06:58;;;;;;;41.83;24.47;;;5.30;99.90;;;7.21;66.07;98091.41;5014220;28;20051;-42
2024/03/07 02:09:26;;;;;;;38.07;21.87;;;5.30;99.90;;;7.17;66.12;98085.50;5026430;28;20515;-42
2024/03/07 02:11:54;;;;;;;39.57;22.20;;;5.30;99.90;;;7.13;66.04;98085.91;5026655;28;20048;-42
2024/03/07 02:14:21;;;;;;;41.70;23.83;;;5.20;99.90;;;7.09;66.11;98085.31;4979848;28;20036;-42
2024/03/07 02:16:49;;;;;;;35.40;21.93;;;5.10;99.90;;;7.05;65.72;98086.56;5028558;28;20052;-42
2024/03/07 02:19:17;;;;;;;42.50;21.80;;;5.10;99.90;;;7.00;65.57;98072.84;5013559;28;20047;-42
2024/03/07 02:21:45;;;;;;;37.20;22.67;;;5.00;99.90;;;6.98;65.66;98072.16;5012384;28;20506;-42
2024/03/07 02:24:14;;;;;;;32.30;21.50;;;5.00;99.90;;;6.97;66.50;98078.41;5028065;28;20064;-42
2024/03/07 02:26:42;;;;;;;33.50;20.70;;;5.00;99.90;;;6.93;65.65;98069.88;5031838;28;20464;-43
2024/03/07 02:29:10;;;;;;;40.67;23.37;;;5.00;99.90;;;6.90;65.93;98062.19;5019394;28;20045;-43
2024/03/07 02:31:41;;;;;;;37.67;22.17;;;4.90;99.90;;;6.86;65.84;98066.06;5014266;28;20050;-43
2024/03/07 02:34:09;;;;;;;43.77;23.50;;;4.90;99.90;;;6.85;66.09;98062.59;5024241;28;20051;-42
2024/03/07 02:36:36;;;;;;;45.07;23.30;;;4.90;99.90;;;6.84;66.04;98057.41;5031215;28;20355;-42
2024/03/07 02:39:06;;;;;;;44.70;24.57;;;4.90;99.90;;;6.85;66.03;98053.81;5022365;28;20052;-43
2024/03/07 02:41:34;;;;;;;42.47;23.90;;;4.90;99.90;;;6.84;65.51;98060.06;5013960;28;20122;-43
2024/03/07 02:44:03;;;;;;;39.63;23.07;;;5.00;99.90;;;6.85;66.16;98056.47;5016720;28;20059;-42
2024/03/07 02:46:32;;;;;;;38.03;23.17;;;5.00;99.90;;;6.84;65.35;98060.06;5031050;28;20037;-43
2024/03/07 02:49:00;;;;;;;37.97;24.27;;;5.00;99.90;;;6.83;65.96;98051.28;5027763;28;20040;-42
2024/03/07 02:51:28;;;;;;;44.17;23.87;;;5.00;99.90;;;6.79;65.65;98049.88;5012498;28;20047;-42
2024/03/07 02:53:55;;;;;;;44.70;25.80;;;5.00;99.90;;;6.76;65.19;98047.47;5013637;28;20414;-42
2024/03/07 02:56:25;;;;;;;44.33;24.23;;;4.90;99.90;;;6.75;64.70;98045.81;5006204;28;20043;-42
2024/03/07 02:58:52;;;;;;;40.60;24.60;;;4.90;99.90;;;6.72;65.26;98042.56;5013218;28;20059;-47
2024/03/07 03:01:20;;;;;;;40.53;22.63;;;4.80;99.90;;;6.70;65.17;98046.16;5004122;28;20058;-42
2024/03/07 03:03:48;;;;;;;40.73;23.43;;;4.80;99.90;;;6.68;65.02;98042.81;5013620;28;20059;-42
2024/03/07 03:06:15;;;;;;;37.93;24.23;;;4.80;99.90;;;6.65;65.32;98037.78;5025406;28;20039;-43
2024/03/07 03:08:43;;;;;;;37.97;22.80;;;4.70;99.90;;;6.59;64.82;98038.31;5030461;28;20064;-43
2024/03/07 03:11:13;;;;;;;38.20;22.40;;;4.60;99.90;;;6.56;64.95;98035.91;5021256;28;20045;-43
2024/03/07 03:13:42;;;;;;;31.70;22.00;;;4.60;99.90;;;6.53;65.31;98035.31;5028182;28;20050;-43
2024/03/07 03:16:10;;;;;;;42.90;25.13;;;4.50;99.90;;;6.50;65.35;98034.59;5021156;28;20066;-43
2024/03/07 03:18:37;;;;;;;38.13;22.73;;;4.50;99.90;;;6.50;64.87;98036.41;5030258;28;20427;-42
2024/03/07 03:21:05;;;;;;;52.67;27.93;;;4.60;99.90;;;6.48;65.11;98035.69;5025705;28;20048;-42
2024/03/07 03:23:34;;;;;;;52.80;27.87;;;4.50;99.90;;;6.44;64.92;98034.25;5011540;28;20051;-42
2024/03/07 03:26:02;;;;;;;42.93;25.27;;;4.50;99.90;;;6.38;64.44;98035.59;5015147;28;20641;-42
2024/03/07 03:28:30;;;;;;;43.67;24.53;;;4.40;99.90;;;6.33;64.84;98040.41;5029290;28;20041;-42
2024/03/07 03:30:57;;;;;;;46.37;24.37;;;4.30;99.90;;;6.29;64.33;98039.00;5029600;28;20040;-43
2024/03/07 03:33:25;;;;;;;40.90;22.00;;;4.30;99.90;;;6.22;64.99;98038.66;5004608;28;20054;-42
2024/03/07 03:35:55;;;;;;;40.23;23.47;;;4.20;99.90;;;6.18;64.98;98041.66;5011993;28;20053;-42
2024/03/07 03:38:22;;;;;;;42.33;23.07;;;4.20;99.90;;;6.11;65.13;98042.16;5028889;28;20052;-42
2024/03/07 03:40:50;;;;;;;42.93;24.07;;;4.10;99.90;;;6.07;64.63;98047.81;5029982;28;20460;-42
2024/03/07 03:43:18;;;;;;;43.20;24.03;;;4.00;99.90;;;6.00;64.67;98044.81;5016401;28;20222;-42
2024/03/07 03:45:47;;;;;;;42.70;23.97;;;3.90;99.90;;;5.94;64.18;98041.81;5012175;28;20065;-42
2024/03/07 03:48:15;;;;;;;45.20;22.13;;;3.80;99.90;;;5.86;64.28;98034.50;5022971;28;20054;-42
2024/03/07 03:50:43;;;;;;;39.60;23.17;;;3.70;99.90;;;5.83;63.98;98040.84;5029609;28;20048;-42
2024/03/07 03:53:11;;;;;;;36.60;21.97;;;3.70;99.90;;;5.81;64.95;98026.91;5023792;28;20044;-42
2024/03/07 03:55:39;;;;;;;45.43;24.30;;;3.80;99.90;;;5.84;65.30;98036.41;5011434;28;20062;-43
2024/03/07 03:58:06;;;;;;;39.83;23.73;;;3.90;99.90;;;5.84;65.28;98036.41;5015992;28;20046;-42
2024/03/07 04:00:34;;;;;;;44.03;24.63;;;4.00;99.90;;;5.85;65.01;98038.06;5030129;28;20495;-42
2024/03/07 04:03:02;;;;;;;45.10;26.00;;;4.00;99.90;;;5.84;64.50;98037.25;5029074;28;20044;-43
2024/03/07 04:05:30;;;;;;;47.97;25.73;;;4.00;99.90;;;5.84;64.17;98031.13;5007969;28;20095;-42
2024/03/07 04:07:58;;;;;;;41.43;23.97;;;4.00;99.90;;;5.84;64.86;98023.19;5013054;28;20055;-41
2024/03/07 04:10:26;;;;;;;42.37;24.20;;;4.00;99.90;;;5.84;64.38;98023.19;5026264;28;20047;-41
2024/03/07 04:12:53;;;;;;;45.37;23.93;;;4.00;99.90;;;5.82;64.41;98027.78;5029538;28;20384;-41
2024/03/07 04:15:21;;;;;;;41.00;21.23;;;4.00;99.80;;;5.80;64.32;98032.34;5017144;28;20407;-41
2024/03/07 04:17:50;;;;;;;39.10;22.97;;;3.90;99.30;;;5.80;64.46;98024.41;5012327;28;20077;-42
2024/03/07 04:20:18;;;;;;;42.93;23.43;;;3.90;99.80;;;5.79;64.97;98033.28;5019538;28;20055;-41
2024/03/07 04:22:48;;;;;;;45.20;23.30;;;3.90;99.50;;;5.74;64.37;98028.38;5029957;28;20048;-41
2024/03/07 04:25:17;;;;;;;45.87;21.80;;;3.80;99.10;;;5.73;63.83;98024.88;5020432;28;20059;-42
2024/03/07 04:27:45;;;;;;;42.23;24.23;;;3.80;99.90;;;5.71;64.84;98018.03;5012066;28;20047;-42
2024/03/07 04:30:16;;;;;;;44.77;22.33;;;3.80;99.90;;;5.69;64.48;98022.59;5017591;28;20046;-42
2024/03/07 04:32:44;;;;;;;37.07;21.03;;;3.80;99.30;;;5.66;64.26;98030.75;5029556;28;20045;-42
2024/03/07 04:35:12;;;;;;;36.57;21.87;;;3.70;98.90;;;5.64;63.85;98030.91;5024613;28;20412;-42
2024/03/07 04:37:43;;;;;;;40.80;23.07;;;3.70;99.40;;;5.63;64.06;98023.09;5012069;28;20050;-43
2024/03/07 04:40:17;;;;;;;42.27;23.93;;;3.70;99.60;;;5.61;63.95;98017.09;5014794;28;20060;-42
2024/03/07 04:42:49;;;;;;;44.27;23.93;;;3.70;99.30;;;5.57;64.20;98016.50;5028437;28;20593;-43
2024/03/07 04:45:18;;;;;;;38.40;22.60;;;3.70;99.50;;;5.53;64.17;98015.88;5021395;28;20048;-42
2024/03/07 04:47:46;;;;;;;42.50;23.97;;;3.60;99.00;;;5.52;63.59;98016.00;5011793;28;20050;-42
2024/03/07 04:50:19;;;;;;;41.57;24.10;;;3.60;99.60;;;5.49;63.41;98018.91;5017085;28;20513;-42
2024/03/07 04:52:48;;;;;;;42.00;25.43;;;3.60;99.40;;;5.48;63.72;98022.50;5029336;28;20044;-42
2024/03/07 04:55:17;;;;;;;44.27;25.33;;;3.50;99.20;;;5.45;63.60;98023.56;5022079;28;20044;-42
2024/03/07 04:57:45;;;;;;;41.00;24.43;;;3.50;99.00;;;5.45;64.14;98020.09;5011609;28;20058;-42
2024/03/07 05:00:14;;;;;;;47.10;24.80;;;3.50;98.90;;;5.43;63.67;98024.63;5014913;28;20084;-42
2024/03/07 05:02:51;;;;;;;41.23;21.97;;;3.50;99.10;;;5.40;63.76;98024.91;5028023;28;20516;-42
2024/03/07 05:05:25;;;;;;;39.17;24.83;;;3.40;99.00;;;5.38;63.80;98024.16;5019897;28;20044;-42
2024/03/07 05:07:53;;;;;;;41.85;22.75;;;3.40;99.40;;;5.37;64.39;98023.34;5010870;28;20321;-42
2024/03/07 05:10:21;;;;;;;41.80;23.90;;;3.50;99.50;;;5.36;64.25;98023.44;5019575;28;20509;-42
2024/03/07 05:12:49;;;;;;;38.23;22.53;;;3.40;99.00;;;5.35;63.97;98027.91;5028770;28;20561;-42
2024/03/07 05:15:17;;;;;;;34.23;21.30;;;3.40;98.70;;;5.33;63.33;98032.44;5022548;28;20419;-42
2024/03/07 05:17:45;;;;;;;38.13;23.50;;;3.40;99.10;;;5.29;63.52;98028.34;5011555;28;20055;-42
2024/03/07 05:20:13;;;;;;;37.63;21.67;;;3.30;98.90;;;5.27;64.59;98027.63;5013013;28;20076;-42
2024/03/07 05:22:47;;;;;;;40.03;22.93;;;3.30;99.20;;;5.24;64.25;98019.97;5029051;28;20049;-42
2024/03/07 05:25:16;;;;;;;41.60;23.23;;;3.30;99.20;;;5.23;63.39;98028.84;5025771;28;20055;-42
2024/03/07 05:27:45;;;;;;;37.63;20.73;;;3.30;99.50;;;5.20;63.99;98023.81;5012273;28;20054;-42
2024/03/07 05:30:15;;;;;;;40.77;22.50;;;3.30;99.10;;;5.18;63.86;98020.44;5012761;28;20047;-42
2024/03/07 05:32:43;;;;;;;45.50;23.53;;;3.30;99.40;;;5.17;63.98;98024.03;5029090;28;20036;-42
2024/03/07 05:35:11;;;;;;;45.57;25.63;;;3.30;99.20;;;5.16;63.59;98024.97;5029619;28;20040;-42
2024/03/07 05:37:46;;;;;;;44.63;26.07;;;3.30;98.50;;;5.14;64.25;98022.47;5003715;28;20061;-42
2024/03/07 05:40:14;;;;;;;44.43;23.13;;;3.20;98.10;;;5.12;63.72;98025.22;5012133;28;20050;-42
2024/03/07 05:42:42;;;;;;;43.70;24.60;;;3.20;98.10;;;5.11;63.30;98015.63;5028402;28;20037;-42
2024/03/07 05:45:10;;;;;;;43.90;23.37;;;3.20;99.00;;;5.11;63.34;98015.63;5028433;28;20055;-42
2024/03/07 05:47:38;;;;;;;38.73;23.13;;;3.20;98.20;;;5.08;63.36;98018.50;5003286;28;20432;-42
2024/03/07 05:50:10;;;;;;;39.43;21.93;;;3.20;98.30;;;5.06;63.69;98015.16;4996841;28;20415;-42
2024/03/07 05:52:38;;;;;;;42.93;22.80;;;3.20;98.60;;;5.04;64.10;98018.84;5027883;28;20055;-42
2024/03/07 05:55:06;;;;;;;38.73;22.93;;;3.20;98.10;;;5.02;63.67;98020.75;5031878;28;20048;-42
2024/03/07 05:57:34;;;;;;;38.53;21.87;;;3.10;97.80;;;5.01;63.30;98019.09;5017403;28;20051;-42
2024/03/07 06:00:02;;;;;;;38.87;23.77;;;3.10;97.60;;;5.00;64.05;98020.91;5014275;28;20425;-42
2024/03/07 06:02:39;;;;;;;44.10;23.47;;;3.10;98.20;;;5.01;63.59;98016.44;5031694;28;20067;-42
2024/03/07 06:05:15;;;;;;;42.77;23.97;;;3.10;98.20;;;5.01;63.29;98014.66;5031868;28;20496;-42
2024/03/07 06:07:45;;;;;;;38.87;22.57;;;3.10;97.30;;;5.00;63.28;98018.25;5006710;28;20042;-42
2024/03/07 06:10:13;;;;;;;39.37;23.70;;;3.10;97.30;;;4.97;63.56;98010.56;5014077;28;20051;-42
2024/03/07 06:12:45;;;;;;;39.80;22.00;;;3.00;96.80;;;4.96;63.22;98015.94;5013871;28;20058;-42
2024/03/07 06:15:31;;;;;;;36.63;21.57;;;3.00;97.70;;;4.93;63.29;98011.75;5025362;28;20430;-42
2024/03/07 06:17:59;;;;;;;43.90;22.07;;;3.00;97.60;;;4.90;63.35;98011.97;5031441;28;20040;-42
2024/03/07 06:20:27;;;;;;;43.10;22.47;;;2.90;97.20;;;4.85;63.09;98008.88;5022878;28;20393;-42
2024/03/07 06:22:57;;;;;;;45.60;24.13;;;2.80;98.00;;;4.84;63.37;98005.38;5013735;28;20057;-42
2024/03/07 06:25:36;;;;;;;38.33;22.23;;;2.90;98.30;;;4.85;63.42;98012.34;5019725;28;20062;-42
2024/03/07 06:28:10;;;;;;;42.03;23.27;;;2.90;98.80;;;4.87;63.46;98009.59;5029997;28;20044;-42
2024/03/07 06:30:42;;;;;;;43.67;23.27;;;2.90;98.10;;;4.88;63.31;98006.81;5013992;28;20047;-42
2024/03/07 06:33:10;;;;;;;42.73;23.97;;;2.90;98.70;;;4.88;63.29;98006.81;5013772;28;20667;-42
2024/03/07 06:35:39;;;;;;;40.13;22.90;;;2.90;97.80;;;4.89;63.91;98007.69;5028279;28;20075;-42
2024/03/07 06:38:09;;;;;;;40.37;26.07;;;2.90;98.30;;;4.90;63.77;98009.34;5031016;28;20075;-42
2024/03/07 06:40:38;;;;;;;46.77;25.33;;;3.00;98.00;;;4.89;63.19;98000.59;4989304;28;20053;-44
2024/03/07 06:43:11;;;;;;;40.77;23.93;;;3.00;97.80;;;4.91;63.79;98001.31;5030821;28;20056;-42
2024/03/07 06:45:39;;;;;;;;;;;3.00;97.80;;;4.93;63.76;98001.19;5016219;28;20074;-42
2024/03/07 06:48:07;;;;;;;37.80;21.30;;;3.00;96.70;;;4.95;63.64;98001.94;5013579;28;19922;-41
2024/03/07 06:50:37;;;;;;;41.73;23.70;;;3.10;97.40;;;4.97;63.75;98005.28;5024977;28;20039;-42
2024/03/07 06:53:06;;;;;;;37.53;21.20;;;3.10;97.10;;;4.95;63.37;98012.47;5029689;28;20407;-42
2024/03/07 06:55:34;;;;;;;35.90;21.93;;;3.20;97.50;;;4.93;63.55;98009.13;5018420;28;20361;-42
2024/03/07 06:58:05;;;;;;;36.63;20.83;;;3.20;97.20;;;4.97;63.77;98017.66;5011752;28;20058;-42
2024/03/07 07:00:35;;;;;;;36.97;20.53;;;3.30;96.60;;;4.99;63.69;98018.38;5022901;28;20053;-41
2024/03/07 07:03:04;;;;;;;35.90;21.87;;;3.30;96.20;;;5.01;63.40;98016.44;5030675;28;20052;-43
2024/03/07 07:05:31;;;;;;;40.97;21.97;;;3.20;96.30;;;5.04;63.35;98016.19;5018390;28;20048;-42
2024/03/07 07:07:59;;;;;;;39.97;23.10;;;3.30;96.80;;;5.07;63.88;98023.91;5012595;28;20047;-42
2024/03/07 07:10:26;;;;;;;43.30;22.23;;;3.30;96.70;;;5.08;63.10;98023.78;5015561;28;20046;-42
2024/03/07 07:12:54;;;;;;;37.40;22.10;;;3.30;97.40;;;5.11;63.52;98022.69;5030482;28;20040;-41
2024/03/07 07:15:22;;;;;;;42.17;22.50;;;3.30;98.00;;;5.15;63.37;98018.03;5028959;28;20059;-41
2024/03/07 07:17:50;;;;;;;44.13;23.27;;;3.30;97.70;;;5.16;64.25;98020.56;5013070;28;20506;-41
2024/03/07 07:20:18;;;;;;;39.37;22.90;;;3.30;98.00;;;5.19;64.09;98014.19;5012914;28;20058;-42
2024/03/07 07:22:47;;;;;;;39.83;22.00;;;3.40;97.50;;;5.19;63.95;98016.84;5030859;28;20048;-42
2024/03/07 07:25:16;;;;;;;42.33;24.70;;;3.30;97.80;;;5.20;63.33;98007.97;5029898;28;20041;-41
2024/03/07 07:27:49;;;;;;;42.33;23.57;;;3.40;98.20;;;5.19;63.24;98007.09;5015594;28;20051;-42
2024/03/07 07:30:22;;;;;;;38.85;22.35;;;3.30;97.50;;;5.19;63.78;98006.28;5012274;28;20035;-42
2024/03/07 07:32:51;;;;;;;34.67;21.30;;;3.30;98.00;;;5.21;63.49;98004.34;5011839;28;20506;-42
2024/03/07 07:35:20;;;;;;;42.37;22.23;;;3.30;98.20;;;5.22;63.19;98006.88;5012700;28;20039;-42
2024/03/07 07:37:53;;;;;;;36.97;22.27;;;3.30;98.70;;;5.24;63.46;98006.78;5012422;28;20050;-43
2024/03/07 07:40:23;;;;;;;38.63;21.25;;;3.30;98.20;;;5.24;63.97;98004.13;5011256;28;20181;-42
2024/03/07 07:42:52;;;;;;;37.73;21.17;;;3.30;98.50;;;5.27;63.71;98001.22;5020405;28;20042;-42
2024/03/07 07:45:22;;;;;;;43.17;22.70;;;3.40;98.50;;;5.30;63.80;97993.91;5011282;28;20073;-42
2024/03/07 07:47:55;;;;;;;37.57;20.93;;;3.50;97.80;;;5.33;64.27;98003.38;5012398;28;20042;-42
2024/03/07 07:50:24;;;;;;;32.70;19.92;;;3.50;97.90;;;5.34;63.76;97997.16;5012085;28;20062;-41
2024/03/07 07:52:57;;;;;;;39.33;20.03;;;3.50;97.60;;;5.35;63.42;97990.94;5004716;28;20054;-42
2024/03/07 07:55:27;;;;;;;32.23;18.50;;;3.50;98.10;;;5.39;63.88;97989.72;5010179;28;20533;-42
2024/03/07 07:57:57;;;;;;;35.13;19.50;;;3.50;96.90;;;5.41;63.93;97986.94;5028959;28;20037;-42
2024/03/07 08:00:28;;;;;;;38.53;20.77;;;3.50;96.40;;;5.44;63.40;97986.72;5029161;28;20047;-42
2024/03/07 08:03:08;;;;;;;36.97;21.70;;;3.60;96.70;;;5.45;63.19;97986.59;5012129;28;20043;-42
2024/03/07 08:05:37;;;;;;;39.47;23.27;;;3.70;96.40;;;5.48;63.73;97985.50;5019490;28;20043;-42
2024/03/07 08:08:07;;;;;;;36.23;21.33;;;3.70;95.70;;;5.50;63.71;97988.88;5028262;28;20041;-42
2024/03/07 08:10:37;;;;;;;33.83;20.03;;;3.70;96.60;;;5.48;64.00;97983.72;5022563;28;20036;-42
2024/03/07 08:13:10;;;;;;;36.67;19.90;;;3.70;94.10;;;5.53;63.37;97983.38;5012154;28;20085;-41
2024/03/07 08:15:38;;;;;;;31.80;18.70;;;3.80;95.20;;;5.59;63.69;97989.97;5019755;28;20395;-42
2024/03/07 08:18:08;;;;;;;31.00;17.37;;;3.80;94.80;;;5.63;63.75;97986.13;5044572;28;20044;-42
2024/03/07 08:20:39;;;;;;;31.13;16.97;;;3.90;94.90;;;5.67;63.37;97991.03;5020625;28;20048;-42
2024/03/07 08:23:08;;;;;;;30.03;17.37;;;3.90;93.30;;;5.70;63.37;97979.41;5027265;28;20058;-42
2024/03/07 08:25:36;;;;;;;30.50;17.80;;;3.90;93.30;;;5.73;62.96;97982.59;5016496;28;20434;-42
2024/03/07 08:28:05;;;;;;;30.27;17.97;;;4.00;93.70;;;5.76;63.33;97983.31;5029171;28;20503;-42
2024/03/07 08:30:34;;;;;;;34.20;18.20;;;4.10;93.60;;;5.80;63.32;97979.50;4997872;28;20045;-42
2024/03/07 08:33:03;;;;;;;27.73;16.80;;;4.10;92.50;;;5.81;63.29;97976.69;5010429;28;20038;-42
2024/03/07 08:35:31;;;;;;;29.80;17.37;;;4.10;91.70;;;5.84;63.14;97978.28;5012781;28;20501;-42
2024/03/07 08:37:58;;;;;;;33.57;18.17;;;4.10;91.30;;;5.88;62.84;97977.06;5028929;28;20063;-42
2024/03/07 08:40:32;;;;;;;33.77;19.37;;;4.20;91.30;;;5.95;63.04;97974.75;5028144;28;20053;-42
2024/03/07 08:43:02;;;;;;;29.77;17.37;;;4.20;92.30;;;5.99;63.24;97979.72;5004427;28;20047;-42
2024/03/07 08:45:33;;;;;;;29.00;17.87;;;4.30;92.20;;;6.04;62.94;97981.97;5012298;28;20395;-42
2024/03/07 08:48:09;;;;;;;30.50;17.63;;;4.30;91.30;;;6.08;62.80;97975.47;5028571;28;20040;-42
2024/03/07 08:50:37;;;;;;;31.70;17.43;;;4.30;91.40;;;6.11;62.62;97977.88;5023065;28;20051;-42
2024/03/07 08:53:07;;;;;;;35.47;19.80;;;4.40;91.00;;;6.16;62.37;97980.13;5036149;28;20040;-42
2024/03/07 08:55:36;;;;;;;28.10;17.07;;;4.40;90.60;;;6.20;62.72;97977.09;5025537;28;20047;-42
2024/03/07 08:58:06;;;;;;;30.63;16.93;;;4.50;90.60;;;6.26;62.14;97978.41;5011079;28;20046;-42
2024/03/07 09:00:35;;;;;;;30.80;17.90;;;4.60;89.80;;;6.36;62.40;97978.50;5012497;28;20054;-42
2024/03/07 09:03:09;;;;;;;31.77;17.23;;;4.70;90.30;;;6.47;62.34;97978.44;5028662;28;20044;-42
2024/03/07 09:05:39;;;;;;;28.50;18.30;;;4.80;90.70;;;6.54;62.01;97971.69;5021969;28;20049;-42
2024/03/07 09:08:07;;;;;;;29.93;16.80;;;4.90;90.00;;;6.63;62.17;97972.72;5009685;28;20057;-42
2024/03/07 09:10:35;;;;;;;32.40;18.40;;;5.00;90.30;;;6.74;62.49;97971.84;5012450;28;20489;-43
2024/03/07 09:13:03;;;;;;;32.07;18.67;;;5.10;90.20;;;6.82;62.14;97964.91;5028655;28;20036;-42
2024/03/07 09:15:33;;;;;;;28.90;17.37;;;5.20;89.90;;;6.84;62.33;97957.72;5028648;28;20047;-42
2024/03/07 09:18:03;;;;;;;33.30;18.47;;;5.40;88.10;;;6.93;62.40;97958.72;5001219;28;20488;-42
2024/03/07 09:20:31;;;;;;;31.60;18.13;;;5.40;87.70;;;7.03;62.29;97962.25;4964100;28;20050;-42
2024/03/07 09:23:00;;;;;;;29.77;17.87;;;5.50;87.90;;;7.13;62.14;97951.72;4964441;28;20571;-42
2024/03/07 09:25:28;;;;;;;30.30;18.57;;;5.50;87.20;;;7.21;61.44;97957.22;4968901;28;20055;-42
2024/03/07 09:27:56;;;;;;;30.67;17.43;;;5.60;87.80;;;7.26;61.15;97956.81;4974104;28;20052;-42
2024/03/07 09:30:26;;;;;;;29.63;17.80;;;5.70;85.80;;;7.32;61.43;97958.09;4970999;28;20054;-43
2024/03/07 09:32:55;;;;;;;28.10;18.07;;;5.80;85.90;;;7.40;60.99;97956.44;4978231;28;20494;-42
2024/03/07 09:35:23;;;;;;;35.40;17.83;;;5.90;86.00;;;7.45;61.28;97956.88;4971542;28;20050;-42
2024/03/07 09:37:51;;;;;;;29.13;17.83;;;5.90;85.30;;;7.55;61.19;97956.06;4977629;28;20043;-42
2024/03/07 09:40:20;;;;;;;31.87;20.17;;;6.00;84.40;;;7.62;60.72;97951.94;4961723;28;20046;-42
2024/03/07 09:42:52;;;;;;;28.67;17.93;;;6.00;85.20;;;7.71;60.64;97953.75;4970036;28;20045;-41
2024/03/07 09:45:22;;;;;;;29.20;19.07;;;6.10;85.10;;;7.79;60.78;97947.75;4968015;28;20073;-41
2024/03/07 09:47:52;;;;;;;30.17;18.97;;;6.20;84.80;;;7.86;60.70;97949.72;4974677;28;20581;-41
2024/03/07 09:50:22;;;;;;;30.43;18.33;;;6.30;84.70;;;7.93;60.64;97942.09;4980931;28;20047;-42
2024/03/07 09:52:52;;;;;;;30.17;17.50;;;6.40;84.70;;;8.02;60.17;97951.00;4966835;28;20051;-42
2024/03/07 09:55:24;;;;;;;33.00;18.47;;;6.40;84.30;;;8.09;60.37;97949.50;4966484;28;20407;-41
2024/03/07 09:57:55;;;;;;;27.90;19.20;;;6.40;83.50;;;8.14;59.89;97941.94;4966430;28;20039;-41
2024/03/07 10:00:27;;;;;;;31.30;17.83;;;6.50;84.10;;;8.18;59.53;97947.81;4965417;28;20070;-42
2024/03/07 10:03:08;;;;;;;31.87;17.70;;;6.50;83.10;;;8.24;59.62;97950.78;4962702;28;20067;-42
2024/03/07 10:05:38;;;;;;;32.03;18.77;;;6.60;83.40;;;8.31;59.45;97951.03;4961415;28;20070;-42
2024/03/07 10:08:07;;;;;;;28.67;19.20;;;6.60;83.10;;;8.34;59.71;97948.13;4960353;28;20047;-41
2024/03/07 10:10:35;;;;;;;26.13;17.00;;;6.70;83.30;;;8.37;59.29;97945.16;4963328;28;20042;-42
2024/03/07 10:13:05;;;;;;;34.00;19.50;;;6.80;82.00;;;8.43;59.31;97947.31;4962092;28;20051;-42
2024/03/07 10:15:34;;;;;;;31.57;18.63;;;6.90;82.90;;;8.45;58.98;97947.16;4964571;28;20062;-41
2024/03/07 10:18:02;;;;;;;29.27;18.57;;;6.90;81.20;;;8.53;59.24;97947.31;4964199;28;20437;-42
2024/03/07 10:20:30;;;;;;;34.40;20.63;;;6.90;82.30;;;8.60;58.80;97935.13;4961203;28;20066;-41
2024/03/07 10:22:59;;;;;;;35.43;20.03;;;7.00;82.30;;;8.61;58.58;97946.59;4960613;28;20054;-41
2024/03/07 10:25:27;;;;;;;29.53;18.37;;;7.00;80.40;;;8.65;58.49;97940.03;4967202;28;20058;-42
2024/03/07 10:27:57;;;;;;;30.33;18.77;;;7.00;80.90;;;8.65;58.24;97937.38;4962083;28;20494;-42